createdAt,value
2018-01-18T00:02:10.921Z,2.80
2018-01-18T00:04:41.054Z,2.80
2018-01-18T00:07:12.013Z,2.70
2018-01-18T00:09:43.576Z,2.70
2018-01-18T00:12:13.627Z,2.70
2018-01-18T00:14:43.969Z,2.70
2018-01-18T00:17:15.139Z,2.70
2018-01-18T00:19:45.570Z,2.70
2018-01-18T00:22:15.832Z,2.80
2018-01-18T00:24:46.009Z,2.80
2018-01-18T00:27:16.367Z,2.80
2018-01-18T00:29:47.077Z,2.70
2018-01-18T00:32:17.517Z,2.70
2018-01-18T00:34:48.079Z,2.70
2018-01-18T00:37:18.336Z,2.70
2018-01-18T00:39:50.273Z,2.70
2018-01-18T00:42:22.033Z,2.60
2018-01-18T00:44:52.370Z,2.70
2018-01-18T00:47:22.396Z,2.70
2018-01-18T00:49:52.532Z,2.70
2018-01-18T00:52:22.601Z,2.70
2018-01-18T00:54:52.895Z,2.60
2018-01-18T00:57:23.669Z,2.60
2018-01-18T00:59:55.006Z,2.60
2018-01-18T01:02:25.510Z,2.60
2018-01-18T01:04:55.689Z,2.70
2018-01-18T01:07:25.944Z,2.60
2018-01-18T01:09:56.082Z,2.60
2018-01-18T01:12:27.491Z,2.60
2018-01-18T01:14:57.753Z,2.60
2018-01-18T01:17:28.317Z,2.60
2018-01-18T01:19:59.796Z,2.60
2018-01-18T01:22:31.687Z,2.60
2018-01-18T01:25:02.400Z,2.60
2018-01-18T01:27:32.842Z,2.60
2018-01-18T01:30:03.344Z,2.50
2018-01-18T01:32:34.406Z,2.60
2018-01-18T01:35:05.855Z,2.60
2018-01-18T01:37:37.122Z,2.60
2018-01-18T01:40:07.592Z,2.60
2018-01-18T01:42:38.714Z,2.70
2018-01-18T01:45:09.967Z,2.70
2018-01-18T01:47:40.270Z,2.70
2018-01-18T01:50:10.575Z,2.80
2018-01-18T01:52:42.274Z,2.80
2018-01-18T01:55:13.496Z,2.80
2018-01-18T01:57:43.663Z,2.80
2018-01-18T02:00:14.754Z,2.80
2018-01-18T02:02:44.911Z,2.80
2018-01-18T02:05:15.382Z,2.80
2018-01-18T02:07:45.889Z,2.80
2018-01-18T02:10:16.320Z,2.80
2018-01-18T02:12:46.653Z,2.80
2018-01-18T02:15:18.231Z,2.90
2018-01-18T02:17:48.817Z,2.90
2018-01-18T02:20:19.577Z,2.90
2018-01-18T02:22:50.163Z,2.90
2018-01-18T02:25:20.638Z,2.90
2018-01-18T02:27:51.151Z,2.90
2018-01-18T02:30:22.218Z,3.00
2018-01-18T02:32:52.203Z,3.00
2018-01-18T02:35:22.496Z,3.00
2018-01-18T02:37:52.921Z,3.00
2018-01-18T02:40:23.695Z,3.10
2018-01-18T02:42:54.074Z,3.10
2018-01-18T02:45:25.331Z,3.10
2018-01-18T02:47:56.061Z,3.00
2018-01-18T02:50:27.211Z,3.10
2018-01-18T02:52:57.578Z,3.20
2018-01-18T02:55:27.540Z,3.20
2018-01-18T02:57:57.893Z,3.20
2018-01-18T03:00:28.962Z,3.20
2018-01-18T03:02:59.232Z,3.20
2018-01-18T03:05:30.357Z,3.10
2018-01-18T03:08:00.584Z,3.10
2018-01-18T03:10:31.568Z,3.20
2018-01-18T03:13:01.676Z,3.10
2018-01-18T03:15:31.769Z,3.10
2018-01-18T03:18:02.818Z,3.20
2018-01-18T03:20:33.756Z,3.20
2018-01-18T03:23:04.348Z,3.20
2018-01-18T03:25:34.489Z,3.10
2018-01-18T03:28:04.672Z,3.10
2018-01-18T03:30:35.252Z,3.10
2018-01-18T03:33:06.961Z,3.00
2018-01-18T03:35:37.251Z,3.00
2018-01-18T03:38:08.413Z,3.10
2018-01-18T03:40:39.409Z,3.10
2018-01-18T03:43:09.951Z,3.10
2018-01-18T03:45:40.222Z,3.10
2018-01-18T03:48:10.872Z,3.10
2018-01-18T03:50:40.990Z,3.10
2018-01-18T03:53:11.588Z,3.20
2018-01-18T03:55:41.974Z,3.20
2018-01-18T03:58:12.156Z,3.20
2018-01-18T04:00:42.488Z,3.20
2018-01-18T04:03:12.964Z,3.30
2018-01-18T04:05:43.268Z,3.30
2018-01-18T04:08:13.593Z,3.30
2018-01-18T04:10:44.533Z,3.30
2018-01-18T04:13:15.427Z,3.30
2018-01-18T04:15:45.890Z,3.30
2018-01-18T04:18:17.073Z,3.30
2018-01-18T04:20:47.119Z,3.20
2018-01-18T04:23:17.292Z,3.30
2018-01-18T04:25:47.512Z,3.30
2018-01-18T04:28:17.644Z,3.30
2018-01-18T04:30:48.152Z,3.30
2018-01-18T04:33:18.149Z,3.30
2018-01-18T04:35:49.087Z,3.30
2018-01-18T04:38:19.452Z,3.30
2018-01-18T04:40:50.256Z,3.30
2018-01-18T04:43:21.252Z,3.20
2018-01-18T04:45:51.623Z,3.20
2018-01-18T04:48:21.604Z,3.20
2018-01-18T04:50:52.696Z,3.10
2018-01-18T04:53:23.238Z,3.10
2018-01-18T04:55:53.629Z,3.10
2018-01-18T04:58:23.890Z,3.00
2018-01-18T05:00:54.002Z,3.00
2018-01-18T05:03:26.378Z,3.00
2018-01-18T05:05:56.353Z,3.00
2018-01-18T05:08:26.449Z,3.00
2018-01-18T05:10:56.834Z,3.00
2018-01-18T05:13:27.600Z,3.00
2018-01-18T05:15:58.356Z,2.90
2018-01-18T05:18:28.778Z,2.90
2018-01-18T05:20:59.922Z,2.90
2018-01-18T05:23:30.615Z,2.90
2018-01-18T05:26:00.625Z,2.90
2018-01-18T05:28:31.292Z,2.90
2018-01-18T05:31:01.733Z,2.90
2018-01-18T05:33:32.658Z,2.80
2018-01-18T05:36:02.652Z,2.80
2018-01-18T05:38:32.593Z,2.80
2018-01-18T05:41:02.659Z,2.80
2018-01-18T05:43:32.622Z,2.70
2018-01-18T05:46:02.902Z,2.60
2018-01-18T05:48:33.190Z,2.60
2018-01-18T05:51:04.002Z,2.50
2018-01-18T05:53:34.608Z,2.50
2018-01-18T05:56:05.000Z,2.40
2018-01-18T05:58:35.029Z,2.40
2018-01-18T06:01:05.137Z,2.30
2018-01-18T06:03:35.236Z,2.30
2018-01-18T06:06:06.749Z,2.20
2018-01-18T06:08:37.180Z,2.20
2018-01-18T06:11:19.727Z,2.20
2018-01-18T06:13:55.864Z,2.20
2018-01-18T06:16:26.568Z,2.20
2018-01-18T06:18:56.882Z,2.20
2018-01-18T06:21:26.881Z,2.10
2018-01-18T06:23:56.905Z,2.10
2018-01-18T06:26:27.010Z,2.10
2018-01-18T06:28:57.373Z,2.10
2018-01-18T06:31:27.595Z,2.20
2018-01-18T06:33:58.238Z,2.20
2018-01-18T06:36:28.852Z,2.20
2018-01-18T06:38:59.288Z,2.30
2018-01-18T06:41:29.478Z,2.30
2018-01-18T06:43:59.509Z,2.40
2018-01-18T06:46:29.580Z,2.30
2018-01-18T06:49:00.387Z,2.40
2018-01-18T06:51:30.775Z,2.40
2018-01-18T06:54:00.985Z,2.40
2018-01-18T06:56:31.135Z,2.40
2018-01-18T06:59:01.654Z,2.40
2018-01-18T07:01:31.651Z,2.50
2018-01-18T07:04:01.826Z,2.50
2018-01-18T07:06:32.699Z,2.70
2018-01-18T07:09:03.433Z,2.70
2018-01-18T07:11:33.677Z,2.80
2018-01-18T07:14:05.663Z,2.90
2018-01-18T07:16:36.469Z,3.20
2018-01-18T07:19:07.710Z,3.20
2018-01-18T07:21:38.497Z,3.30
2018-01-18T07:24:09.506Z,3.60
2018-01-18T07:26:39.540Z,3.60
2018-01-18T07:29:09.932Z,3.60
2018-01-18T07:31:39.959Z,3.80
2018-01-18T07:34:10.004Z,3.90
2018-01-18T07:36:40.309Z,4.00
2018-01-18T07:39:10.506Z,4.00
2018-01-18T07:41:40.518Z,4.00
2018-01-18T07:44:10.663Z,4.00
2018-01-18T07:46:41.847Z,4.20
2018-01-18T07:49:12.123Z,4.20
2018-01-18T07:51:43.054Z,4.40
2018-01-18T07:54:13.178Z,4.30
2018-01-18T07:56:44.325Z,4.40
2018-01-18T07:59:14.439Z,4.50
2018-01-18T08:01:44.459Z,4.60
2018-01-18T08:04:29.371Z,4.70
2018-01-18T08:06:59.591Z,4.80
2018-01-18T08:09:30.484Z,5.00
2018-01-18T08:12:00.596Z,4.90
2018-01-18T08:14:30.702Z,5.00
2018-01-18T08:17:00.913Z,5.00
2018-01-18T08:19:31.188Z,5.00
2018-01-18T08:22:02.354Z,5.30
2018-01-18T08:24:33.295Z,5.40
2018-01-18T08:27:03.616Z,5.40
2018-01-18T08:29:33.837Z,5.50
2018-01-18T08:32:04.253Z,5.60
2018-01-18T08:34:35.280Z,5.70
2018-01-18T08:37:06.452Z,5.90
2018-01-18T08:39:37.603Z,5.90
2018-01-18T08:42:09.356Z,6.00
2018-01-18T08:44:39.513Z,6.10
2018-01-18T08:47:09.653Z,6.30
2018-01-18T08:49:39.855Z,6.30
2018-01-18T08:52:09.927Z,6.50
2018-01-18T08:54:40.079Z,6.60
2018-01-18T08:57:10.322Z,6.70
2018-01-18T08:59:41.483Z,6.80
2018-01-18T09:02:11.941Z,6.90
2018-01-18T09:04:43.022Z,6.90
2018-01-18T09:07:14.589Z,6.90
2018-01-18T09:09:45.570Z,6.90
2018-01-18T09:12:16.132Z,6.90
2018-01-18T09:14:47.142Z,7.00
2018-01-18T09:17:18.356Z,6.90
2018-01-18T09:19:48.473Z,6.90
2018-01-18T09:22:18.610Z,7.20
2018-01-18T09:24:49.002Z,7.30
2018-01-18T09:27:19.517Z,7.60
2018-01-18T09:29:49.721Z,7.70
2018-01-18T09:32:21.082Z,7.90
2018-01-18T09:34:51.613Z,7.80
2018-01-18T09:37:23.396Z,7.80
2018-01-18T09:39:54.376Z,7.90
2018-01-18T09:42:24.763Z,7.90
2018-01-18T09:44:55.749Z,8.00
2018-01-18T09:47:25.940Z,7.90
2018-01-18T09:49:57.181Z,7.60
2018-01-18T09:52:28.079Z,7.60
2018-01-18T09:54:58.402Z,7.60
2018-01-18T09:57:28.536Z,7.60
2018-01-18T09:59:58.761Z,7.80
2018-01-18T10:02:29.162Z,7.80
2018-01-18T10:04:59.244Z,7.70
2018-01-18T10:07:29.414Z,7.70
2018-01-18T10:09:59.851Z,7.70
2018-01-18T10:12:29.947Z,7.70
2018-01-18T10:15:00.108Z,7.80
2018-01-18T10:17:31.157Z,7.90
2018-01-18T10:20:01.424Z,7.90
2018-01-18T10:22:31.853Z,7.80
2018-01-18T10:25:02.597Z,7.70
2018-01-18T10:27:32.944Z,7.70
2018-01-18T10:30:04.054Z,7.50
2018-01-18T10:32:34.781Z,7.50
2018-01-18T10:35:05.135Z,7.50
2018-01-18T10:37:36.114Z,7.10
2018-01-18T10:40:06.535Z,7.10
2018-01-18T10:42:37.590Z,7.00
2018-01-18T10:45:07.975Z,6.90
2018-01-18T10:47:38.861Z,6.60
2018-01-18T10:50:09.140Z,6.50
2018-01-18T10:52:39.785Z,6.40
2018-01-18T10:55:10.086Z,6.20
2018-01-18T10:57:40.355Z,5.90
2018-01-18T11:00:10.598Z,5.80
2018-01-18T11:02:42.067Z,5.70
2018-01-18T11:05:12.976Z,5.70
2018-01-18T11:07:43.230Z,5.60
2018-01-18T11:10:13.684Z,5.50
2018-01-18T11:12:43.812Z,5.40
2018-01-18T11:15:15.942Z,5.30
2018-01-18T11:17:46.348Z,5.20
2018-01-18T11:20:16.632Z,5.10
2018-01-18T11:22:47.099Z,4.90
2018-01-18T11:25:17.989Z,4.80
2018-01-18T11:27:49.097Z,4.70
2018-01-18T11:30:19.573Z,4.70
2018-01-18T11:32:49.815Z,4.70
2018-01-18T11:35:20.082Z,4.60
2018-01-18T11:37:51.018Z,4.60
2018-01-18T11:40:23.639Z,4.60
2018-01-18T11:42:54.701Z,4.60
2018-01-18T11:45:26.179Z,4.60
2018-01-18T11:47:57.621Z,4.50
2018-01-18T11:50:29.466Z,4.50
2018-01-18T11:52:59.622Z,4.60
2018-01-18T11:55:30.625Z,4.60
2018-01-18T11:58:00.801Z,4.50
2018-01-18T12:00:32.783Z,4.60
2018-01-18T12:03:03.053Z,4.60
2018-01-18T12:05:33.260Z,4.50
2018-01-18T12:08:03.626Z,4.40
2018-01-18T12:10:34.796Z,4.30
2018-01-18T12:13:06.005Z,4.20
2018-01-18T12:15:38.103Z,4.20
2018-01-18T12:18:09.898Z,4.20
2018-01-18T12:20:40.410Z,4.10
2018-01-18T12:23:12.334Z,4.10
2018-01-18T12:25:43.885Z,4.10
2018-01-18T12:28:16.274Z,4.20
2018-01-18T12:30:50.420Z,4.20
2018-01-18T12:33:22.003Z,4.20
2018-01-18T12:35:54.898Z,4.30
2018-01-18T12:38:26.350Z,4.30
2018-01-18T12:40:56.801Z,4.30
2018-01-18T12:43:28.199Z,4.30
2018-01-18T12:45:59.929Z,4.30
2018-01-18T12:48:31.983Z,4.30
2018-01-18T12:51:03.638Z,4.40
2018-01-18T12:53:35.025Z,4.30
2018-01-18T12:56:06.061Z,4.30
2018-01-18T12:58:37.597Z,4.40
2018-01-18T13:01:09.014Z,4.40
2018-01-18T13:03:41.244Z,4.40
2018-01-18T13:06:14.283Z,4.40
2018-01-18T13:08:45.931Z,4.40
2018-01-18T13:11:18.620Z,4.40
2018-01-18T13:13:48.944Z,4.40
2018-01-18T13:16:27.558Z,4.40
2018-01-18T13:18:59.214Z,4.40
2018-01-18T13:21:29.793Z,4.40
2018-01-18T13:24:00.771Z,4.40
2018-01-18T13:26:30.976Z,4.40
2018-01-18T13:29:01.587Z,4.40
2018-01-18T13:31:33.836Z,4.40
2018-01-18T13:34:05.543Z,4.30
2018-01-18T13:36:36.504Z,4.30
2018-01-18T13:39:07.960Z,4.30
2018-01-18T13:41:39.667Z,4.30
2018-01-18T13:44:12.169Z,4.30
2018-01-18T13:46:47.101Z,4.30
2018-01-18T13:49:22.193Z,4.30
2018-01-18T13:51:53.015Z,4.40
2018-01-18T13:54:23.764Z,4.40
2018-01-18T13:56:57.147Z,4.40
2018-01-18T13:59:27.879Z,4.50
2018-01-18T14:01:58.631Z,4.60
2018-01-18T14:04:29.993Z,4.60
2018-01-18T14:07:00.385Z,4.60
2018-01-18T14:09:31.243Z,4.50
2018-01-18T14:12:02.504Z,4.50
2018-01-18T14:14:33.152Z,4.50
2018-01-18T14:17:03.865Z,4.50
2018-01-18T14:19:34.501Z,4.60
2018-01-18T14:22:05.328Z,4.60
2018-01-18T14:24:36.417Z,4.70
2018-01-18T14:27:07.118Z,4.70
2018-01-18T14:29:37.626Z,4.80
2018-01-18T14:32:08.004Z,4.80
2018-01-18T14:34:40.625Z,4.70
2018-01-18T14:37:12.091Z,4.50
2018-01-18T14:39:42.885Z,4.30
2018-01-18T14:42:14.336Z,4.20
2018-01-18T14:44:45.617Z,4.20
2018-01-18T14:47:16.473Z,4.20
2018-01-18T14:49:46.994Z,4.20
2018-01-18T14:52:18.639Z,4.20
2018-01-18T14:54:49.543Z,4.30
2018-01-18T14:57:21.224Z,4.30
2018-01-18T14:59:55.063Z,4.30
2018-01-18T15:02:27.861Z,4.40
2018-01-18T15:04:58.343Z,4.40
2018-01-18T15:07:29.997Z,4.50
2018-01-18T15:10:00.594Z,4.60
2018-01-18T15:12:31.776Z,4.50
2018-01-18T15:15:02.818Z,4.60
2018-01-18T15:17:33.153Z,4.50
2018-01-18T15:20:04.260Z,4.60
2018-01-18T15:22:35.713Z,4.60
2018-01-18T15:25:06.103Z,4.60
2018-01-18T15:27:36.415Z,4.60
2018-01-18T15:30:06.767Z,4.60
2018-01-18T15:32:38.142Z,4.50
2018-01-18T15:35:10.782Z,4.50
2018-01-18T15:37:41.329Z,4.50
2018-01-18T15:40:11.428Z,4.40
2018-01-18T15:42:42.047Z,4.40
2018-01-18T15:45:12.135Z,4.40
2018-01-18T15:47:42.469Z,4.40
2018-01-18T15:50:13.480Z,4.50
2018-01-18T15:52:49.741Z,4.40
2018-01-18T15:55:19.953Z,4.40
2018-01-18T15:57:52.455Z,4.40
2018-01-18T16:00:24.751Z,4.40
2018-01-18T16:02:54.957Z,4.40
2018-01-18T16:05:25.168Z,4.40
2018-01-18T16:07:55.386Z,4.30
2018-01-18T16:10:26.268Z,4.30
2018-01-18T16:12:57.612Z,4.40
2018-01-18T16:15:28.074Z,4.40
2018-01-18T16:18:00.025Z,4.50
2018-01-18T16:20:31.539Z,4.40
2018-01-18T16:23:02.574Z,4.40
2018-01-18T16:25:33.916Z,4.40
2018-01-18T16:28:04.388Z,4.40
2018-01-18T16:30:36.608Z,4.50
2018-01-18T16:33:08.594Z,4.40
2018-01-18T16:35:39.784Z,4.40
2018-01-18T16:38:11.734Z,4.40
2018-01-18T16:40:42.217Z,4.40
2018-01-18T16:43:12.436Z,4.40
2018-01-18T16:45:42.543Z,4.30
2018-01-18T16:48:20.379Z,4.40
2018-01-18T16:50:54.039Z,4.40
2018-01-18T16:53:30.211Z,4.30
2018-01-18T16:56:02.083Z,4.30
2018-01-18T16:58:32.308Z,4.40
2018-01-18T17:01:02.916Z,4.30
2018-01-18T17:03:33.242Z,4.30
2018-01-18T17:06:03.364Z,4.20
2018-01-18T17:08:36.562Z,4.30
2018-01-18T17:11:21.669Z,4.20
2018-01-18T17:14:08.882Z,4.20
2018-01-18T17:16:41.873Z,4.20
2018-01-18T17:19:12.604Z,4.20
2018-01-18T17:21:43.047Z,4.20
2018-01-18T17:24:15.532Z,4.10
2018-01-18T17:26:46.319Z,4.10
2018-01-18T17:29:16.575Z,4.10
2018-01-18T17:31:47.595Z,4.10
2018-01-18T17:34:18.881Z,4.10
2018-01-18T17:36:50.619Z,4.10
2018-01-18T17:39:22.502Z,4.10
2018-01-18T17:41:53.463Z,4.10
2018-01-18T17:44:24.160Z,4.10
2018-01-18T17:46:54.840Z,4.10
2018-01-18T17:49:25.198Z,4.10
2018-01-18T17:51:56.254Z,3.90
2018-01-18T17:54:27.289Z,3.90
2018-01-18T17:56:59.353Z,3.90
2018-01-18T17:59:32.762Z,3.90
2018-01-18T18:02:05.384Z,3.80
2018-01-18T18:04:35.581Z,3.90
2018-01-18T18:07:07.493Z,3.80
2018-01-18T18:09:37.748Z,3.80
2018-01-18T18:12:08.150Z,4.00
2018-01-18T18:14:38.702Z,3.90
2018-01-18T18:17:10.713Z,4.00
2018-01-18T18:19:44.665Z,4.00
2018-01-18T18:22:15.724Z,4.00
2018-01-18T18:24:46.708Z,4.00
2018-01-18T18:27:18.245Z,4.00
2018-01-18T18:29:50.435Z,4.00
2018-01-18T18:32:24.370Z,4.00
2018-01-18T18:34:54.863Z,4.00
2018-01-18T18:37:26.309Z,4.00
2018-01-18T18:39:58.129Z,4.10
2018-01-18T18:42:28.883Z,4.10
2018-01-18T18:45:00.307Z,4.10
2018-01-18T18:47:30.587Z,4.10
2018-01-18T18:50:02.722Z,4.10
2018-01-18T18:52:32.893Z,4.10
2018-01-18T18:55:03.256Z,4.10
2018-01-18T18:57:33.583Z,4.10
2018-01-18T19:00:03.830Z,4.00
2018-01-18T19:02:35.138Z,4.10
2018-01-18T19:05:05.365Z,4.10
2018-01-18T19:07:35.551Z,4.20
2018-01-18T19:10:06.868Z,4.10
2018-01-18T19:12:38.651Z,4.10
2018-01-18T19:15:09.093Z,4.20
2018-01-18T19:17:40.041Z,4.10
2018-01-18T19:20:11.254Z,4.00
2018-01-18T19:22:42.422Z,4.00
2018-01-18T19:25:13.317Z,4.00
2018-01-18T19:27:43.849Z,4.00
2018-01-18T19:30:14.361Z,4.00
2018-01-18T19:32:44.645Z,4.00
2018-01-18T19:35:15.569Z,4.00
2018-01-18T19:37:45.961Z,4.00
2018-01-18T19:40:16.186Z,4.00
2018-01-18T19:42:46.486Z,4.10
2018-01-18T19:45:16.908Z,4.00
2018-01-18T19:47:48.067Z,4.00
2018-01-18T19:50:20.232Z,3.90
2018-01-18T19:52:51.706Z,4.00
2018-01-18T19:55:21.968Z,4.00
2018-01-18T19:57:52.840Z,4.00
2018-01-18T20:00:23.326Z,4.00
2018-01-18T20:02:54.121Z,3.90
2018-01-18T20:05:24.304Z,3.90
2018-01-18T20:07:54.729Z,3.90
2018-01-18T20:10:26.564Z,3.90
2018-01-18T20:12:57.484Z,3.80
2018-01-18T20:15:28.054Z,3.80
2018-01-18T20:17:58.174Z,3.80
2018-01-18T20:20:29.414Z,3.80
2018-01-18T20:22:59.643Z,3.80
2018-01-18T20:25:30.553Z,3.80
2018-01-18T20:28:01.234Z,3.70
2018-01-18T20:30:31.948Z,3.60
2018-01-18T20:33:02.863Z,3.60
2018-01-18T20:35:33.871Z,3.60
2018-01-18T20:38:05.789Z,3.50
2018-01-18T20:40:37.100Z,3.50
2018-01-18T20:43:07.940Z,3.40
2018-01-18T20:45:39.296Z,3.30
2018-01-18T20:48:10.540Z,3.20
2018-01-18T20:50:40.924Z,3.20
2018-01-18T20:53:12.946Z,3.20
2018-01-18T20:55:43.057Z,3.10
2018-01-18T20:58:14.403Z,3.30
2018-01-18T21:00:44.922Z,3.30
2018-01-18T21:03:15.043Z,3.30
2018-01-18T21:05:45.983Z,3.30
2018-01-18T21:08:17.374Z,3.20
2018-01-18T21:10:47.473Z,3.20
2018-01-18T21:13:17.602Z,3.20
2018-01-18T21:15:48.336Z,3.00
2018-01-18T21:18:18.798Z,3.00
2018-01-18T21:20:49.188Z,2.90
2018-01-18T21:23:19.311Z,2.80
2018-01-18T21:25:50.712Z,2.80
2018-01-18T21:28:20.843Z,2.70
2018-01-18T21:30:51.047Z,2.60
2018-01-18T21:33:22.374Z,2.60
2018-01-18T21:35:53.756Z,2.70
2018-01-18T21:38:24.569Z,2.60
2018-01-18T21:40:58.302Z,2.60
2018-01-18T21:43:35.655Z,2.70
2018-01-18T21:46:12.160Z,2.70
2018-01-18T21:48:44.236Z,2.90
2018-01-18T21:51:14.445Z,2.80
2018-01-18T21:53:45.425Z,2.90
2018-01-18T21:56:16.997Z,2.90
2018-01-18T21:58:48.548Z,2.90
2018-01-18T22:01:18.902Z,2.90
2018-01-18T22:03:50.242Z,2.80
2018-01-18T22:06:21.078Z,2.70
2018-01-18T22:08:51.911Z,2.60
2018-01-18T22:11:23.060Z,2.60
2018-01-18T22:13:53.950Z,2.50
2018-01-18T22:16:24.194Z,2.50
2018-01-18T22:18:54.702Z,2.40
2018-01-18T22:21:25.148Z,2.30
2018-01-18T22:23:56.286Z,2.30
2018-01-18T22:26:26.726Z,2.30
2018-01-18T22:28:57.307Z,2.30
2018-01-18T22:31:27.652Z,2.20
2018-01-18T22:33:57.694Z,2.10
2018-01-18T22:36:27.789Z,2.10
2018-01-18T22:38:58.010Z,2.20
2018-01-18T22:41:28.452Z,2.10
2018-01-18T22:43:58.518Z,2.10
2018-01-18T22:46:29.206Z,2.00
2018-01-18T22:49:00.149Z,1.90
2018-01-18T22:51:31.374Z,1.90
2018-01-18T22:54:01.642Z,1.80
2018-01-18T22:56:31.791Z,1.70
2018-01-18T22:59:02.939Z,1.60
2018-01-18T23:01:33.233Z,1.50
2018-01-18T23:04:04.111Z,1.50
2018-01-18T23:06:34.828Z,1.40
2018-01-18T23:09:06.138Z,1.30
2018-01-18T23:11:36.603Z,1.20
2018-01-18T23:14:08.714Z,1.20
2018-01-18T23:16:39.285Z,1.10
2018-01-18T23:19:09.366Z,1.10
2018-01-18T23:21:40.560Z,0.90
2018-01-18T23:24:11.066Z,0.90
2018-01-18T23:26:41.259Z,0.80
2018-01-18T23:29:11.263Z,0.80
2018-01-18T23:31:41.536Z,0.70
2018-01-18T23:34:11.583Z,0.80
2018-01-18T23:36:41.856Z,0.80
2018-01-18T23:39:12.182Z,0.80
2018-01-18T23:41:42.400Z,0.80
2018-01-18T23:44:12.975Z,0.80
2018-01-18T23:46:43.528Z,0.80
2018-01-18T23:49:13.918Z,0.80
2018-01-18T23:51:44.303Z,0.90
2018-01-18T23:54:14.445Z,0.80
2018-01-18T23:56:44.652Z,0.70
2018-01-18T23:59:14.938Z,0.70
